createdAt,value
2022-11-28T00:01:43.606Z,1.00
2022-11-28T00:04:10.862Z,1.00
2022-11-28T00:06:41.824Z,1.10
2022-11-28T00:09:09.509Z,1.00
2022-11-28T00:11:36.322Z,1.10
2022-11-28T00:14:03.205Z,1.10
2022-11-28T00:16:30.215Z,1.00
2022-11-28T00:18:59.673Z,1.00
2022-11-28T00:21:26.711Z,1.00
2022-11-28T00:23:53.682Z,1.00
2022-11-28T00:26:29.926Z,1.00
2022-11-28T00:28:57.936Z,1.00
2022-11-28T00:31:27.886Z,1.00
2022-11-28T00:33:55.432Z,1.00
2022-11-28T00:36:23.081Z,1.00
2022-11-28T00:38:50.977Z,1.00
2022-11-28T00:41:24.866Z,1.00
2022-11-28T00:43:52.228Z,1.00
2022-11-28T00:46:20.666Z,1.00
2022-11-28T00:48:48.481Z,1.00
2022-11-28T00:51:24.513Z,1.10
2022-11-28T00:53:53.709Z,1.10
2022-11-28T00:56:27.852Z,1.10
2022-11-28T00:58:54.758Z,1.00
2022-11-28T01:01:28.490Z,1.00
2022-11-28T01:03:58.094Z,1.10
2022-11-28T01:06:27.873Z,1.00
2022-11-28T01:08:55.556Z,1.00
2022-11-28T01:11:23.085Z,1.00
2022-11-28T01:13:50.405Z,1.00
2022-11-28T01:16:17.548Z,1.00
2022-11-28T01:18:44.464Z,1.00
2022-11-28T01:21:11.742Z,1.00
2022-11-28T01:23:38.858Z,1.00
2022-11-28T01:26:08.499Z,1.00
2022-11-28T01:28:35.847Z,1.00
2022-11-28T01:31:05.317Z,1.00
2022-11-28T01:33:32.214Z,0.90
2022-11-28T01:35:59.669Z,0.90
2022-11-28T01:38:27.611Z,0.90
2022-11-28T01:40:55.191Z,0.90
2022-11-28T01:43:22.906Z,0.90
2022-11-28T01:45:49.742Z,0.90
2022-11-28T01:48:22.931Z,0.90
2022-11-28T01:50:52.201Z,0.90
2022-11-28T01:53:19.723Z,0.90
2022-11-28T01:55:55.934Z,0.80
2022-11-28T01:58:23.571Z,0.80
2022-11-28T02:00:50.413Z,0.80
2022-11-28T02:03:26.169Z,0.80
2022-11-28T02:05:54.011Z,0.80
2022-11-28T02:08:21.000Z,0.90
2022-11-28T02:11:12.710Z,1.00
2022-11-28T02:14:27.586Z,1.10
2022-11-28T02:17:30.942Z,1.10
2022-11-28T02:20:20.515Z,1.20
2022-11-28T02:22:59.172Z,1.20
2022-11-28T02:25:25.924Z,1.20
2022-11-28T02:28:17.521Z,1.20
2022-11-28T02:30:44.282Z,1.20
2022-11-28T02:33:14.156Z,1.20
2022-11-28T02:35:46.782Z,1.20
2022-11-28T02:38:27.621Z,1.20
2022-11-28T02:41:31.848Z,1.20
2022-11-28T02:44:07.595Z,1.20
2022-11-28T02:46:42.807Z,1.30
2022-11-28T02:49:24.688Z,1.30
2022-11-28T02:52:03.369Z,1.30
2022-11-28T02:54:31.807Z,1.20
2022-11-28T02:56:58.882Z,1.20
2022-11-28T02:59:38.442Z,1.20
2022-11-28T03:02:13.901Z,1.20
2022-11-28T03:05:05.884Z,1.10
2022-11-28T03:07:51.312Z,1.10
2022-11-28T03:10:20.873Z,1.10
2022-11-28T03:13:03.105Z,1.10
2022-11-28T03:15:49.445Z,1.10
2022-11-28T03:18:24.715Z,1.00
2022-11-28T03:20:57.126Z,1.00
2022-11-28T03:23:33.918Z,1.00
2022-11-28T03:26:05.888Z,1.00
2022-11-28T03:29:00.557Z,0.90
2022-11-28T03:31:49.500Z,0.80
2022-11-28T03:34:20.482Z,0.80
2022-11-28T03:37:03.195Z,0.80
2022-11-28T03:39:38.159Z,0.80
2022-11-28T03:42:11.094Z,0.90
2022-11-28T03:44:52.351Z,0.80
2022-11-28T03:47:19.239Z,0.80
2022-11-28T03:49:53.154Z,0.80
2022-11-28T03:52:35.762Z,0.80
2022-11-28T03:55:17.521Z,0.80
2022-11-28T03:58:02.430Z,0.80
2022-11-28T04:00:30.429Z,0.80
2022-11-28T04:03:09.099Z,0.80
2022-11-28T04:05:45.519Z,0.80
2022-11-28T04:08:26.158Z,0.90
2022-11-28T04:11:15.050Z,0.90
2022-11-28T04:14:06.467Z,0.90
2022-11-28T04:16:54.143Z,0.90
2022-11-28T04:19:39.931Z,0.90
2022-11-28T04:22:19.551Z,0.90
2022-11-28T04:24:52.806Z,1.00
2022-11-28T04:27:23.642Z,1.00
2022-11-28T04:29:55.036Z,1.00
2022-11-28T04:32:25.009Z,1.00
2022-11-28T04:34:58.360Z,1.00
2022-11-28T04:37:28.500Z,1.00
2022-11-28T04:39:56.837Z,1.00
2022-11-28T04:42:37.757Z,1.00
2022-11-28T04:45:19.681Z,1.00
2022-11-28T04:47:46.517Z,1.00
2022-11-28T04:50:13.632Z,1.10
2022-11-28T04:53:15.966Z,1.10
2022-11-28T04:55:47.998Z,1.20
2022-11-28T04:58:26.045Z,1.20
2022-11-28T05:00:54.999Z,1.20
2022-11-28T05:03:22.856Z,1.20
2022-11-28T05:05:51.703Z,1.20
2022-11-28T05:08:20.110Z,1.20
2022-11-28T05:10:47.385Z,1.20
2022-11-28T05:13:14.314Z,1.20
2022-11-28T05:15:41.101Z,1.20
2022-11-28T05:18:07.918Z,1.30
2022-11-28T05:20:35.050Z,1.30
2022-11-28T05:23:01.907Z,1.40
2022-11-28T05:25:28.678Z,1.40
2022-11-28T05:27:55.684Z,1.40
2022-11-28T05:30:22.503Z,1.40
2022-11-28T05:32:49.328Z,1.50
2022-11-28T05:35:16.175Z,1.50
2022-11-28T05:37:43.024Z,1.40
2022-11-28T05:40:10.039Z,1.40
2022-11-28T05:42:37.098Z,1.30
2022-11-28T05:45:05.568Z,1.40
2022-11-28T05:47:33.346Z,1.40
2022-11-28T05:50:00.535Z,1.40
2022-11-28T05:52:29.735Z,1.40
2022-11-28T05:54:56.591Z,1.40
2022-11-28T05:57:23.789Z,1.40
2022-11-28T05:59:50.591Z,1.40
2022-11-28T06:02:17.407Z,1.40
2022-11-28T06:04:44.369Z,1.30
2022-11-28T06:07:11.233Z,1.30
2022-11-28T06:09:38.000Z,1.20
2022-11-28T06:12:05.002Z,1.30
2022-11-28T06:14:32.395Z,1.20
2022-11-28T06:16:59.268Z,1.30
2022-11-28T06:19:26.180Z,1.30
2022-11-28T06:21:53.118Z,1.40
2022-11-28T06:24:20.092Z,1.30
2022-11-28T06:26:46.888Z,1.40
2022-11-28T06:29:13.671Z,1.40
2022-11-28T06:31:40.480Z,1.40
2022-11-28T06:34:07.319Z,1.50
2022-11-28T06:36:35.172Z,1.50
2022-11-28T06:39:01.997Z,1.50
2022-11-28T06:41:28.820Z,1.50
2022-11-28T06:43:56.971Z,1.50
2022-11-28T06:46:24.229Z,1.50
2022-11-28T06:48:52.315Z,1.60
2022-11-28T06:51:20.622Z,1.60
2022-11-28T06:53:47.914Z,1.70
2022-11-28T06:56:17.470Z,1.60
2022-11-28T06:58:45.470Z,1.70
2022-11-28T07:01:20.651Z,1.70
2022-11-28T07:03:48.489Z,1.80
2022-11-28T07:06:18.083Z,1.90
2022-11-28T07:08:45.118Z,2.00
2022-11-28T07:11:23.935Z,2.10
2022-11-28T07:13:51.467Z,2.00
2022-11-28T07:16:26.756Z,2.10
2022-11-28T07:18:54.290Z,2.30
2022-11-28T07:21:21.748Z,2.30
2022-11-28T07:23:49.197Z,2.30
2022-11-28T07:26:18.356Z,2.50
2022-11-28T07:28:46.138Z,2.50
2022-11-28T07:31:19.244Z,2.60
2022-11-28T07:33:48.033Z,2.60
2022-11-28T07:36:26.547Z,2.70
2022-11-28T07:38:56.206Z,2.70
2022-11-28T07:41:26.416Z,2.70
2022-11-28T07:43:56.269Z,2.70
2022-11-28T07:46:23.794Z,2.70
2022-11-28T07:48:50.776Z,2.80
2022-11-28T07:51:22.069Z,2.70
2022-11-28T07:53:49.515Z,2.70
2022-11-28T07:56:23.082Z,2.80
2022-11-28T07:58:50.518Z,2.90
2022-11-28T08:01:20.419Z,2.90
2022-11-28T08:03:48.088Z,2.90
2022-11-28T08:06:17.366Z,3.60
2022-11-28T08:08:47.204Z,4.00
2022-11-28T08:11:15.063Z,3.80
2022-11-28T08:13:42.010Z,3.60
2022-11-28T08:16:14.270Z,3.50
2022-11-28T08:18:42.504Z,3.60
2022-11-28T08:21:11.371Z,3.60
2022-11-28T08:23:42.004Z,3.90
2022-11-28T08:26:11.701Z,4.00
2022-11-28T08:28:38.498Z,4.40
2022-11-28T08:31:15.051Z,4.60
2022-11-28T08:33:42.438Z,4.90
2022-11-28T08:36:11.447Z,5.30
2022-11-28T08:38:39.107Z,5.40
2022-11-28T08:41:09.827Z,5.30
2022-11-28T08:43:37.982Z,5.80
2022-11-28T08:46:06.685Z,5.70
2022-11-28T08:48:35.476Z,6.00
2022-11-28T08:51:02.436Z,6.90
2022-11-28T08:53:29.512Z,6.50
2022-11-28T08:55:56.619Z,6.30
2022-11-28T08:58:23.571Z,5.60
2022-11-28T09:00:50.415Z,5.40
2022-11-28T09:03:19.019Z,5.20
2022-11-28T09:05:47.306Z,5.20
2022-11-28T09:08:16.366Z,5.00
2022-11-28T09:10:44.923Z,5.00
2022-11-28T09:13:13.214Z,5.10
2022-11-28T09:15:42.353Z,5.20
2022-11-28T09:18:09.738Z,5.30
2022-11-28T09:20:36.630Z,5.30
2022-11-28T09:23:07.246Z,5.20
2022-11-28T09:25:38.942Z,5.30
2022-11-28T09:28:06.703Z,5.20
2022-11-28T09:30:34.501Z,5.30
2022-11-28T09:33:01.693Z,5.40
2022-11-28T09:35:28.615Z,5.30
2022-11-28T09:37:55.546Z,5.30
2022-11-28T09:40:28.440Z,5.30
2022-11-28T09:42:56.258Z,5.20
2022-11-28T09:45:24.929Z,5.30
2022-11-28T09:48:12.523Z,5.20
2022-11-28T09:50:41.496Z,5.10
2022-11-28T09:53:42.115Z,5.20
2022-11-28T09:56:19.421Z,5.40
2022-11-28T09:58:51.740Z,5.40
2022-11-28T10:01:35.764Z,5.50
2022-11-28T10:04:16.815Z,5.70
2022-11-28T10:07:21.411Z,6.00
2022-11-28T10:10:28.069Z,6.10
2022-11-28T10:13:19.571Z,6.20
2022-11-28T10:15:53.749Z,6.00
2022-11-28T10:18:35.567Z,6.20
2022-11-28T10:21:10.735Z,6.40
2022-11-28T10:23:43.687Z,6.60
2022-11-28T10:26:17.462Z,6.60
2022-11-28T10:28:48.576Z,6.70
2022-11-28T10:31:28.569Z,6.60
2022-11-28T10:34:21.926Z,6.50
2022-11-28T10:37:11.494Z,6.50
2022-11-28T10:39:42.785Z,6.50
2022-11-28T10:42:24.344Z,6.60
2022-11-28T10:45:03.334Z,6.50
2022-11-28T10:48:29.517Z,6.70
2022-11-28T10:50:59.386Z,6.90
2022-11-28T10:53:44.494Z,7.10
2022-11-28T10:56:17.165Z,7.70
2022-11-28T10:59:02.663Z,7.90
2022-11-28T11:01:38.038Z,7.90
2022-11-28T11:04:06.171Z,8.00
2022-11-28T11:06:41.696Z,7.70
2022-11-28T11:09:11.947Z,8.20
2022-11-28T11:11:50.323Z,8.10
2022-11-28T11:14:33.557Z,8.00
2022-11-28T11:17:00.429Z,7.90
2022-11-28T11:19:36.929Z,8.00
2022-11-28T11:22:24.761Z,8.20
2022-11-28T11:25:15.443Z,8.30
2022-11-28T11:27:58.101Z,8.40
2022-11-28T11:30:38.688Z,8.00
2022-11-28T11:33:12.768Z,8.00
2022-11-28T11:35:45.581Z,7.90
2022-11-28T11:38:33.528Z,8.00
2022-11-28T11:41:28.563Z,7.70
2022-11-28T11:43:56.862Z,7.60
2022-11-28T11:46:23.850Z,7.40
2022-11-28T11:48:54.016Z,7.50
2022-11-28T11:51:28.507Z,7.50
2022-11-28T11:54:17.077Z,7.50
2022-11-28T11:56:46.909Z,7.50
2022-11-28T11:59:20.539Z,7.60
2022-11-28T12:01:55.507Z,7.70
2022-11-28T12:04:44.984Z,7.70
2022-11-28T12:07:26.515Z,7.60
2022-11-28T12:09:57.105Z,7.60
2022-11-28T12:12:30.739Z,7.60
2022-11-28T12:14:57.719Z,7.50
2022-11-28T12:20:47.562Z,7.60
2022-11-28T12:23:41.406Z,7.80
2022-11-28T12:26:57.515Z,7.80
2022-11-28T12:30:01.394Z,7.80
2022-11-28T12:32:37.029Z,7.80
2022-11-28T12:35:14.048Z,7.80
2022-11-28T12:38:11.382Z,7.80
2022-11-28T12:41:00.935Z,7.90
2022-11-28T12:43:33.769Z,7.90
2022-11-28T12:46:20.191Z,7.90
2022-11-28T12:48:53.714Z,7.90
2022-11-28T12:51:58.438Z,7.80
2022-11-28T12:54:40.129Z,7.70
2022-11-28T12:57:15.854Z,7.80
2022-11-28T13:00:20.004Z,7.70
2022-11-28T13:03:20.935Z,7.70
2022-11-28T13:06:06.235Z,7.70
2022-11-28T13:08:57.692Z,7.70
2022-11-28T13:11:40.120Z,7.70
2022-11-28T13:14:32.828Z,7.70
2022-11-28T13:17:24.307Z,7.60
2022-11-28T13:20:40.085Z,7.60
2022-11-28T13:23:18.124Z,7.60
2022-11-28T13:26:05.291Z,7.50
2022-11-28T13:29:11.127Z,7.50
2022-11-28T13:31:53.448Z,7.30
2022-11-28T13:34:22.605Z,7.30
2022-11-28T13:40:05.957Z,7.20
2022-11-28T13:45:35.937Z,7.20
2022-11-28T13:49:13.246Z,7.30
2022-11-28T13:51:33.655Z,7.30
2022-11-28T13:54:21.745Z,7.20
2022-11-28T13:57:16.287Z,7.20
2022-11-28T13:59:50.779Z,7.20
2022-11-28T14:02:42.900Z,7.30
2022-11-28T14:05:38.128Z,7.30
2022-11-28T14:08:06.161Z,7.30
2022-11-28T14:11:10.841Z,7.30
2022-11-28T14:14:04.045Z,7.20
2022-11-28T14:16:48.265Z,7.20
2022-11-28T14:19:24.426Z,7.30
2022-11-28T14:22:03.841Z,7.20
2022-11-28T14:24:49.666Z,7.10
2022-11-28T14:27:24.783Z,7.00
2022-11-28T14:29:54.829Z,6.80
2022-11-28T14:32:31.789Z,6.90
2022-11-28T14:34:59.221Z,7.10
2022-11-28T14:37:29.474Z,7.10
2022-11-28T14:39:57.672Z,7.10
2022-11-28T14:45:32.924Z,6.90
2022-11-28T14:48:21.895Z,7.00
2022-11-28T14:50:54.733Z,7.00
2022-11-28T14:53:48.830Z,6.80
2022-11-28T14:56:15.599Z,6.70
2022-11-28T14:58:55.610Z,6.60
2022-11-28T15:01:43.365Z,6.60
2022-11-28T15:04:45.538Z,6.60
2022-11-28T15:07:35.031Z,6.60
2022-11-28T15:10:27.223Z,6.50
2022-11-28T15:13:12.139Z,6.50
2022-11-28T15:15:48.478Z,6.50
2022-11-28T15:18:17.791Z,6.40
2022-11-28T15:20:53.955Z,6.40
2022-11-28T15:23:35.569Z,6.40
2022-11-28T15:26:03.464Z,6.40
2022-11-28T15:28:34.014Z,6.40
2022-11-28T15:31:04.093Z,6.40
2022-11-28T15:33:32.055Z,6.40
2022-11-28T15:36:15.134Z,6.40
2022-11-28T15:38:43.001Z,6.40
2022-11-28T15:41:10.267Z,6.30
2022-11-28T15:43:38.783Z,6.30
2022-11-28T15:46:08.071Z,6.30
2022-11-28T15:48:47.539Z,6.30
2022-11-28T15:51:29.781Z,6.30
2022-11-28T15:53:56.949Z,6.30
2022-11-28T15:56:23.834Z,6.30
2022-11-28T15:58:51.743Z,6.30
2022-11-28T16:01:20.126Z,6.40
2022-11-28T16:04:14.675Z,6.40
2022-11-28T16:06:44.214Z,6.40
2022-11-28T16:09:20.214Z,6.40
2022-11-28T16:11:49.880Z,6.40
2022-11-28T16:14:34.497Z,6.40
2022-11-28T16:17:05.016Z,6.40
2022-11-28T16:19:37.347Z,6.40
2022-11-28T16:22:17.003Z,6.40
2022-11-28T16:24:50.068Z,6.40
2022-11-28T16:27:36.317Z,6.30
2022-11-28T16:30:23.210Z,6.20
2022-11-28T16:32:59.592Z,6.20
2022-11-28T16:35:33.594Z,6.20
2022-11-28T16:38:24.427Z,6.20
2022-11-28T16:40:59.163Z,6.10
2022-11-28T16:43:36.289Z,6.10
2022-11-28T16:46:08.751Z,6.00
2022-11-28T16:48:38.142Z,6.10
2022-11-28T16:51:11.047Z,6.10
2022-11-28T16:53:47.872Z,6.10
2022-11-28T16:56:29.871Z,6.20
2022-11-28T16:59:13.948Z,6.20
2022-11-28T17:01:51.814Z,6.20
2022-11-28T17:04:26.074Z,6.20
2022-11-28T17:06:54.478Z,6.20
2022-11-28T17:09:21.523Z,6.20
2022-11-28T17:11:59.299Z,6.20
2022-11-28T17:14:27.384Z,6.20
2022-11-28T17:16:54.227Z,6.20
2022-11-28T17:19:21.131Z,6.20
2022-11-28T17:21:51.745Z,6.20
2022-11-28T17:24:22.302Z,6.10
2022-11-28T17:26:50.465Z,6.10
2022-11-28T17:29:17.437Z,6.10
2022-11-28T17:31:46.896Z,6.10
2022-11-28T17:34:25.490Z,6.10
2022-11-28T17:36:52.883Z,6.00
2022-11-28T17:39:20.959Z,6.00
2022-11-28T17:41:48.297Z,5.90
2022-11-28T17:44:21.148Z,5.90
2022-11-28T17:46:49.405Z,5.90
2022-11-28T17:49:16.432Z,5.90
2022-11-28T17:51:43.709Z,5.90
2022-11-28T17:54:16.725Z,5.90
2022-11-28T17:56:48.207Z,5.90
2022-11-28T17:59:20.046Z,5.90
2022-11-28T18:01:47.227Z,5.80
2022-11-28T18:04:14.238Z,5.90
2022-11-28T18:06:45.497Z,5.90
2022-11-28T18:09:13.343Z,5.90
2022-11-28T18:11:41.526Z,5.90
2022-11-28T18:14:08.519Z,5.90
2022-11-28T18:16:40.184Z,5.90
2022-11-28T18:19:07.145Z,6.00
2022-11-28T18:21:33.975Z,6.00
2022-11-28T18:24:00.805Z,5.90
2022-11-28T18:26:27.762Z,6.00
2022-11-28T18:28:54.946Z,6.00
2022-11-28T18:31:24.643Z,6.00
2022-11-28T18:33:52.938Z,6.00
2022-11-28T18:36:24.783Z,6.00
2022-11-28T18:38:55.922Z,6.00
2022-11-28T18:41:22.740Z,6.00
2022-11-28T18:43:49.614Z,6.00
2022-11-28T18:46:19.217Z,6.00
2022-11-28T18:48:47.387Z,6.00
2022-11-28T18:51:16.762Z,6.00
2022-11-28T18:53:45.000Z,6.00
2022-11-28T18:56:12.700Z,6.00
2022-11-28T18:58:42.015Z,5.90
2022-11-28T19:01:25.128Z,5.90
2022-11-28T19:03:54.785Z,5.90
2022-11-28T19:06:22.161Z,5.90
2022-11-28T19:08:52.150Z,5.90
2022-11-28T19:11:18.968Z,5.90
2022-11-28T19:13:47.766Z,5.90
2022-11-28T19:16:23.072Z,6.00
2022-11-28T19:18:50.049Z,6.00
2022-11-28T19:21:23.792Z,6.00
2022-11-28T19:23:51.533Z,6.00
2022-11-28T19:26:20.447Z,6.00
2022-11-28T19:28:47.592Z,6.10
2022-11-28T19:31:17.163Z,6.00
2022-11-28T19:33:44.878Z,5.90
2022-11-28T19:36:13.390Z,5.90
2022-11-28T19:38:41.299Z,5.90
2022-11-28T19:41:13.747Z,5.80
2022-11-28T19:43:41.497Z,5.80
2022-11-28T19:46:09.610Z,5.80
2022-11-28T19:48:37.960Z,5.70
2022-11-28T19:51:05.934Z,5.70
2022-11-28T19:53:34.949Z,5.70
2022-11-28T19:56:07.736Z,5.80
2022-11-28T19:58:37.829Z,5.80
2022-11-28T20:01:14.149Z,5.80
2022-11-28T20:03:41.741Z,5.70
2022-11-28T20:06:11.072Z,5.70
2022-11-28T20:08:38.305Z,5.70
2022-11-28T20:11:13.384Z,5.70
2022-11-28T20:13:41.412Z,5.70
2022-11-28T20:16:10.058Z,5.60
2022-11-28T20:18:38.197Z,5.60
2022-11-28T20:21:10.650Z,5.60
2022-11-28T20:23:44.663Z,5.60
2022-11-28T20:26:13.302Z,5.50
2022-11-28T20:28:41.695Z,5.50
2022-11-28T20:31:19.985Z,5.50
2022-11-28T20:33:48.591Z,5.40
2022-11-28T20:36:17.434Z,5.30
2022-11-28T20:38:44.427Z,5.30
2022-11-28T20:41:12.952Z,5.30
2022-11-28T20:43:40.868Z,5.20
2022-11-28T20:46:17.726Z,5.20
2022-11-28T20:48:45.098Z,5.10
2022-11-28T20:51:20.427Z,5.10
2022-11-28T20:53:48.037Z,5.20
2022-11-28T20:56:18.219Z,5.20
2022-11-28T20:58:45.603Z,5.20
2022-11-28T21:01:20.753Z,5.20
2022-11-28T21:03:48.331Z,5.20
2022-11-28T21:06:15.430Z,5.20
2022-11-28T21:08:42.481Z,5.20
2022-11-28T21:11:43.805Z,5.20
2022-11-28T21:14:07.919Z,5.20
2022-11-28T21:16:34.882Z,5.20
2022-11-28T21:19:11.159Z,5.20
2022-11-28T21:21:39.595Z,5.20
2022-11-28T21:24:10.382Z,5.20
2022-11-28T21:26:41.654Z,5.20
2022-11-28T21:29:12.451Z,5.20
2022-11-28T21:31:43.137Z,5.20
2022-11-28T21:34:14.399Z,5.30
2022-11-28T21:36:41.785Z,5.30
2022-11-28T21:39:13.748Z,5.30
2022-11-28T21:41:40.593Z,5.30
2022-11-28T21:44:07.581Z,5.30
2022-11-28T21:46:34.431Z,5.30
2022-11-28T21:49:01.944Z,5.30
2022-11-28T21:51:29.246Z,5.40
2022-11-28T21:53:57.589Z,5.40
2022-11-28T21:56:25.226Z,5.40
2022-11-28T21:58:52.474Z,5.40
2022-11-28T22:01:21.252Z,5.40
2022-11-28T22:03:48.508Z,5.40
2022-11-28T22:06:21.562Z,5.40
2022-11-28T22:08:48.902Z,5.40
2022-11-28T22:11:16.231Z,5.40
2022-11-28T22:13:45.192Z,5.40
2022-11-28T22:16:19.398Z,5.40
2022-11-28T22:18:48.015Z,5.40
2022-11-28T22:24:05.818Z,5.40
2022-11-28T22:26:32.768Z,5.40
2022-11-28T22:29:00.983Z,5.40
2022-11-28T22:31:28.017Z,5.40
2022-11-28T22:33:54.858Z,5.40
2022-11-28T22:36:22.516Z,5.40
2022-11-28T22:38:54.397Z,5.40
2022-11-28T22:41:28.449Z,5.40
2022-11-28T22:43:57.405Z,5.40
2022-11-28T22:46:24.513Z,5.40
2022-11-28T22:48:52.129Z,5.50
2022-11-28T22:51:23.231Z,5.50
2022-11-28T22:53:57.806Z,5.50
2022-11-28T22:56:25.437Z,5.50
2022-11-28T22:58:52.234Z,5.50
2022-11-28T23:01:25.517Z,5.50
2022-11-28T23:03:53.305Z,5.50
2022-11-28T23:06:32.253Z,5.60
2022-11-28T23:09:01.603Z,5.60
2022-11-28T23:11:31.199Z,5.60
2022-11-28T23:13:58.270Z,5.60
2022-11-28T23:16:33.130Z,5.60
2022-11-28T23:19:02.512Z,5.50
2022-11-28T23:21:32.502Z,5.60
2022-11-28T23:23:59.336Z,5.60
2022-11-28T23:26:28.272Z,5.60
2022-11-28T23:28:55.862Z,5.50
2022-11-28T23:31:25.522Z,5.50
2022-11-28T23:33:53.125Z,5.50
2022-11-28T23:36:30.025Z,5.50
2022-11-28T23:39:10.003Z,5.60
2022-11-28T23:41:37.070Z,5.60
2022-11-28T23:44:04.035Z,5.60
2022-11-28T23:46:30.865Z,5.60
2022-11-28T23:48:57.712Z,5.70
2022-11-28T23:51:26.163Z,5.70
2022-11-28T23:53:53.532Z,5.70
2022-11-28T23:56:26.419Z,5.70
2022-11-28T23:58:55.020Z,5.70
